sensor_id;sensor_type;location;lat;lon;timestamp;pressure;altitude;pressure_sealevel;temperature;humidity
14089;BME280;7120;52.890;6.040;2022-09-09T00:04:30;100691.31;;;15.23;87.78
14089;BME280;7120;52.890;6.040;2022-09-09T00:10:29;100685.06;;;15.14;88.16
14089;BME280;7120;52.890;6.040;2022-09-09T00:12:57;100683.72;;;15.20;87.50
14089;BME280;7120;52.890;6.040;2022-09-09T00:15:31;100683.63;;;15.07;87.92
14089;BME280;7120;52.890;6.040;2022-09-09T00:21:09;100676.00;;;15.13;88.38
14089;BME280;7120;52.890;6.040;2022-09-09T00:23:40;100682.84;;;15.07;87.68
14089;BME280;7120;52.890;6.040;2022-09-09T00:31:23;100670.81;;;15.11;89.04
14089;BME280;7120;52.890;6.040;2022-09-09T00:33:50;100665.78;;;15.14;88.62
14089;BME280;7120;52.890;6.040;2022-09-09T00:36:18;100656.63;;;15.22;87.87
14089;BME280;7120;52.890;6.040;2022-09-09T00:38:51;100665.22;;;15.20;88.42
14089;BME280;7120;52.890;6.040;2022-09-09T00:44:37;100654.28;;;15.11;88.98
14089;BME280;7120;52.890;6.040;2022-09-09T00:50:27;100654.41;;;15.15;88.98
14089;BME280;7120;52.890;6.040;2022-09-09T00:56:11;100652.59;;;15.19;88.85
14089;BME280;7120;52.890;6.040;2022-09-09T00:58:37;100652.81;;;15.14;89.34
14089;BME280;7120;52.890;6.040;2022-09-09T01:01:06;100644.94;;;15.25;89.40
14089;BME280;7120;52.890;6.040;2022-09-09T01:03:55;100665.84;;;15.26;89.41
14089;BME280;7120;52.890;6.040;2022-09-09T01:06:35;100656.94;;;15.41;88.99
14089;BME280;7120;52.890;6.040;2022-09-09T01:11:45;100666.78;;;15.63;87.99
14089;BME280;7120;52.890;6.040;2022-09-09T01:17:12;100662.63;;;15.57;88.17
14089;BME280;7120;52.890;6.040;2022-09-09T01:27:34;100654.31;;;15.65;88.66
14089;BME280;7120;52.890;6.040;2022-09-09T01:30:08;100658.88;;;15.61;88.70
14089;BME280;7120;52.890;6.040;2022-09-09T01:32:43;100657.88;;;15.66;88.67
14089;BME280;7120;52.890;6.040;2022-09-09T01:35:57;100658.53;;;15.63;89.00
14089;BME280;7120;52.890;6.040;2022-09-09T01:37:57;100657.25;;;15.60;89.65
14089;BME280;7120;52.890;6.040;2022-09-09T01:40:23;100648.00;;;15.65;89.25
14089;BME280;7120;52.890;6.040;2022-09-09T01:42:49;100634.88;;;15.62;89.36
14089;BME280;7120;52.890;6.040;2022-09-09T01:45:15;100638.06;;;15.64;89.36
14089;BME280;7120;52.890;6.040;2022-09-09T01:47:41;100651.66;;;15.69;89.31
14089;BME280;7120;52.890;6.040;2022-09-09T01:50:08;100646.84;;;15.66;89.44
14089;BME280;7120;52.890;6.040;2022-09-09T01:52:36;100650.28;;;15.75;88.95
14089;BME280;7120;52.890;6.040;2022-09-09T01:55:03;100642.81;;;15.76;88.43
14089;BME280;7120;52.890;6.040;2022-09-09T02:00:20;100653.66;;;15.81;88.61
14089;BME280;7120;52.890;6.040;2022-09-09T02:08:05;100654.09;;;15.83;88.59
14089;BME280;7120;52.890;6.040;2022-09-09T02:10:53;100651.34;;;15.83;88.68
14089;BME280;7120;52.890;6.040;2022-09-09T02:13:21;100644.81;;;15.87;88.38
14089;BME280;7120;52.890;6.040;2022-09-09T02:15:57;100645.25;;;15.89;88.24
14089;BME280;7120;52.890;6.040;2022-09-09T02:18:30;100647.31;;;15.80;89.38
14089;BME280;7120;52.890;6.040;2022-09-09T02:20:58;100645.22;;;15.77;89.63
14089;BME280;7120;52.890;6.040;2022-09-09T02:23:24;100643.75;;;15.80;89.34
14089;BME280;7120;52.890;6.040;2022-09-09T02:25:51;100646.75;;;15.87;89.59
14089;BME280;7120;52.890;6.040;2022-09-09T02:28:20;100639.50;;;15.82;90.18
14089;BME280;7120;52.890;6.040;2022-09-09T02:30:49;100640.69;;;15.93;89.48
14089;BME280;7120;52.890;6.040;2022-09-09T02:33:23;100647.69;;;15.79;90.37
14089;BME280;7120;52.890;6.040;2022-09-09T02:35:51;100655.59;;;15.80;91.07
14089;BME280;7120;52.890;6.040;2022-09-09T02:38:17;100647.00;;;15.94;90.50
14089;BME280;7120;52.890;6.040;2022-09-09T02:40:42;100647.91;;;15.98;90.15
14089;BME280;7120;52.890;6.040;2022-09-09T02:43:08;100652.28;;;15.99;89.98
14089;BME280;7120;52.890;6.040;2022-09-09T02:45:44;100637.13;;;15.93;90.25
14089;BME280;7120;52.890;6.040;2022-09-09T02:48:54;100645.25;;;15.89;89.94
14089;BME280;7120;52.890;6.040;2022-09-09T02:56:46;100648.84;;;16.02;90.16
14089;BME280;7120;52.890;6.040;2022-09-09T02:59:15;100653.00;;;16.08;89.73
14089;BME280;7120;52.890;6.040;2022-09-09T03:01:41;100643.78;;;16.04;89.42
14089;BME280;7120;52.890;6.040;2022-09-09T03:04:07;100650.69;;;16.10;89.51
14089;BME280;7120;52.890;6.040;2022-09-09T03:06:32;100653.59;;;16.14;89.27
14089;BME280;7120;52.890;6.040;2022-09-09T03:08:58;100646.31;;;16.09;89.82
14089;BME280;7120;52.890;6.040;2022-09-09T03:11:26;100650.91;;;16.05;89.96
14089;BME280;7120;52.890;6.040;2022-09-09T03:13:52;100650.66;;;15.98;89.88
14089;BME280;7120;52.890;6.040;2022-09-09T03:16:17;100640.34;;;15.95;90.16
14089;BME280;7120;52.890;6.040;2022-09-09T03:18:43;100640.34;;;15.95;90.30
14089;BME280;7120;52.890;6.040;2022-09-09T03:21:10;100636.53;;;16.00;90.41
14089;BME280;7120;52.890;6.040;2022-09-09T03:23:36;100619.41;;;15.94;90.06
14089;BME280;7120;52.890;6.040;2022-09-09T03:26:01;100631.25;;;15.95;90.11
14089;BME280;7120;52.890;6.040;2022-09-09T03:28:26;100629.41;;;15.99;90.37
14089;BME280;7120;52.890;6.040;2022-09-09T03:31:03;100631.84;;;16.00;89.77
14089;BME280;7120;52.890;6.040;2022-09-09T03:33:29;100633.56;;;16.05;89.86
14089;BME280;7120;52.890;6.040;2022-09-09T03:35:55;100637.81;;;16.02;90.34
14089;BME280;7120;52.890;6.040;2022-09-09T03:38:23;100625.28;;;16.05;89.93
14089;BME280;7120;52.890;6.040;2022-09-09T03:40:53;100631.50;;;16.14;89.70
14089;BME280;7120;52.890;6.040;2022-09-09T03:43:24;100636.31;;;16.05;90.00
14089;BME280;7120;52.890;6.040;2022-09-09T03:45:50;100635.63;;;16.08;89.56
14089;BME280;7120;52.890;6.040;2022-09-09T03:48:16;100643.66;;;16.13;88.97
14089;BME280;7120;52.890;6.040;2022-09-09T03:50:53;100630.44;;;16.06;88.73
14089;BME280;7120;52.890;6.040;2022-09-09T03:53:21;100639.19;;;16.08;88.86
14089;BME280;7120;52.890;6.040;2022-09-09T03:55:48;100640.56;;;16.02;89.03
14089;BME280;7120;52.890;6.040;2022-09-09T03:58:16;100631.34;;;15.98;89.07
14089;BME280;7120;52.890;6.040;2022-09-09T04:00:44;100641.59;;;15.98;89.42
14089;BME280;7120;52.890;6.040;2022-09-09T04:03:10;100649.44;;;16.08;88.87
14089;BME280;7120;52.890;6.040;2022-09-09T04:05:36;100642.28;;;16.07;88.64
14089;BME280;7120;52.890;6.040;2022-09-09T04:08:06;100643.44;;;16.06;88.54
14089;BME280;7120;52.890;6.040;2022-09-09T04:10:31;100650.31;;;16.00;88.77
14089;BME280;7120;52.890;6.040;2022-09-09T04:12:56;100629.88;;;16.01;88.98
14089;BME280;7120;52.890;6.040;2022-09-09T04:15:22;100638.03;;;15.97;89.82
14089;BME280;7120;52.890;6.040;2022-09-09T04:17:47;100630.22;;;15.99;89.50
14089;BME280;7120;52.890;6.040;2022-09-09T04:20:12;100623.78;;;15.95;89.90
14089;BME280;7120;52.890;6.040;2022-09-09T04:22:38;100629.28;;;15.83;90.28
14089;BME280;7120;52.890;6.040;2022-09-09T04:25:05;100625.50;;;15.87;90.65
14089;BME280;7120;52.890;6.040;2022-09-09T04:27:31;100625.38;;;15.84;90.69
14089;BME280;7120;52.890;6.040;2022-09-09T04:29:56;100618.34;;;15.74;91.33
14089;BME280;7120;52.890;6.040;2022-09-09T04:32:22;100619.97;;;15.75;92.05
14089;BME280;7120;52.890;6.040;2022-09-09T04:34:48;100623.72;;;15.71;92.18
14089;BME280;7120;52.890;6.040;2022-09-09T04:37:13;100628.94;;;15.72;92.31
14089;BME280;7120;52.890;6.040;2022-09-09T04:39:39;100631.34;;;15.74;91.85
14089;BME280;7120;52.890;6.040;2022-09-09T04:42:04;100639.25;;;15.75;91.64
14089;BME280;7120;52.890;6.040;2022-09-09T04:44:30;100638.44;;;15.62;91.21
14089;BME280;7120;52.890;6.040;2022-09-09T04:46:55;100641.50;;;15.61;92.43
14089;BME280;7120;52.890;6.040;2022-09-09T04:49:21;100641.50;;;15.61;91.96
14089;BME280;7120;52.890;6.040;2022-09-09T04:51:49;100634.38;;;15.60;92.21
14089;BME280;7120;52.890;6.040;2022-09-09T04:54:14;100632.09;;;15.62;91.56
14089;BME280;7120;52.890;6.040;2022-09-09T04:56:40;100627.53;;;15.66;91.21
14089;BME280;7120;52.890;6.040;2022-09-09T04:59:07;100635.00;;;15.65;90.94
14089;BME280;7120;52.890;6.040;2022-09-09T05:01:32;100634.88;;;15.41;92.12
14089;BME280;7120;52.890;6.040;2022-09-09T05:03:58;100625.50;;;15.54;91.44
14089;BME280;7120;52.890;6.040;2022-09-09T05:06:24;100640.84;;;15.43;91.25
14089;BME280;7120;52.890;6.040;2022-09-09T05:08:50;100642.75;;;15.51;91.53
14089;BME280;7120;52.890;6.040;2022-09-09T05:11:19;100643.66;;;15.55;91.64
14089;BME280;7120;52.890;6.040;2022-09-09T05:13:45;100636.09;;;15.52;91.08
14089;BME280;7120;52.890;6.040;2022-09-09T05:16:11;100630.69;;;15.56;90.96
14089;BME280;7120;52.890;6.040;2022-09-09T05:18:40;100636.19;;;15.56;90.82
14089;BME280;7120;52.890;6.040;2022-09-09T05:21:07;100623.22;;;15.44;90.97
14089;BME280;7120;52.890;6.040;2022-09-09T05:23:33;100623.06;;;15.41;90.77
14089;BME280;7120;52.890;6.040;2022-09-09T05:25:59;100634.78;;;15.37;91.05
14089;BME280;7120;52.890;6.040;2022-09-09T05:28:26;100636.97;;;15.44;91.82
14089;BME280;7120;52.890;6.040;2022-09-09T05:31:02;100630.41;;;15.36;90.88
14089;BME280;7120;52.890;6.040;2022-09-09T05:33:34;100634.97;;;15.32;91.47
14089;BME280;7120;52.890;6.040;2022-09-09T05:36:08;100647.41;;;15.38;91.20
14089;BME280;7120;52.890;6.040;2022-09-09T05:38:34;100641.03;;;15.26;91.38
14089;BME280;7120;52.890;6.040;2022-09-09T05:41:01;100639.34;;;15.33;91.34
14089;BME280;7120;52.890;6.040;2022-09-09T05:43:28;100650.41;;;15.46;90.77
14089;BME280;7120;52.890;6.040;2022-09-09T05:46:16;100650.28;;;15.42;91.24
14089;BME280;7120;52.890;6.040;2022-09-09T05:48:43;100634.09;;;15.41;91.27
14089;BME280;7120;52.890;6.040;2022-09-09T05:51:12;100633.09;;;15.57;90.76
14089;BME280;7120;52.890;6.040;2022-09-09T05:53:41;100643.13;;;15.62;90.87
14089;BME280;7120;52.890;6.040;2022-09-09T05:56:09;100638.94;;;15.56;90.61
14089;BME280;7120;52.890;6.040;2022-09-09T05:58:39;100637.56;;;15.50;90.60
14089;BME280;7120;52.890;6.040;2022-09-09T06:01:10;100637.91;;;15.48;91.07
14089;BME280;7120;52.890;6.040;2022-09-09T06:03:37;100631.72;;;15.51;91.47
14089;BME280;7120;52.890;6.040;2022-09-09T06:06:05;100642.84;;;15.55;91.21
14089;BME280;7120;52.890;6.040;2022-09-09T06:08:32;100640.53;;;15.65;90.68
14089;BME280;7120;52.890;6.040;2022-09-09T06:11:12;100645.00;;;15.70;89.90
14089;BME280;7120;52.890;6.040;2022-09-09T06:13:38;100634.06;;;15.61;91.02
14089;BME280;7120;52.890;6.040;2022-09-09T06:16:08;100635.91;;;15.70;90.46
14089;BME280;7120;52.890;6.040;2022-09-09T06:18:34;100642.47;;;15.77;90.10
14089;BME280;7120;52.890;6.040;2022-09-09T06:21:04;100641.09;;;15.71;89.99
14089;BME280;7120;52.890;6.040;2022-09-09T06:23:30;100626.50;;;15.71;89.85
14089;BME280;7120;52.890;6.040;2022-09-09T06:26:10;100652.84;;;15.92;89.74
14089;BME280;7120;52.890;6.040;2022-09-09T06:28:36;100640.69;;;15.93;88.96
14089;BME280;7120;52.890;6.040;2022-09-09T06:31:04;100637.47;;;16.04;89.44
14089;BME280;7120;52.890;6.040;2022-09-09T06:33:34;100628.94;;;15.84;89.54
14089;BME280;7120;52.890;6.040;2022-09-09T06:36:01;100644.69;;;15.84;89.85
14089;BME280;7120;52.890;6.040;2022-09-09T06:38:27;100642.53;;;16.14;89.95
14089;BME280;7120;52.890;6.040;2022-09-09T06:40:57;100626.66;;;16.11;89.27
14089;BME280;7120;52.890;6.040;2022-09-09T06:43:24;100632.41;;;16.18;88.54
14089;BME280;7120;52.890;6.040;2022-09-09T06:45:56;100634.94;;;16.23;88.39
14089;BME280;7120;52.890;6.040;2022-09-09T06:48:23;100642.66;;;16.17;88.17
14089;BME280;7120;52.890;6.040;2022-09-09T06:50:48;100632.88;;;16.08;88.42
14089;BME280;7120;52.890;6.040;2022-09-09T06:53:18;100634.72;;;16.16;88.25
14089;BME280;7120;52.890;6.040;2022-09-09T06:55:45;100638.16;;;16.13;88.74
14089;BME280;7120;52.890;6.040;2022-09-09T06:58:10;100632.72;;;15.92;88.40
14089;BME280;7120;52.890;6.040;2022-09-09T07:00:36;100642.75;;;16.09;88.49
14089;BME280;7120;52.890;6.040;2022-09-09T07:03:04;100641.03;;;16.29;88.83
14089;BME280;7120;52.890;6.040;2022-09-09T07:05:30;100632.75;;;16.16;88.54
14089;BME280;7120;52.890;6.040;2022-09-09T07:07:55;100638.50;;;16.11;88.24
14089;BME280;7120;52.890;6.040;2022-09-09T07:10:21;100634.91;;;15.99;88.51
14089;BME280;7120;52.890;6.040;2022-09-09T07:12:50;100631.38;;;16.10;88.67
14089;BME280;7120;52.890;6.040;2022-09-09T07:15:16;100633.66;;;16.20;88.58
14089;BME280;7120;52.890;6.040;2022-09-09T07:17:43;100633.88;;;16.28;88.68
14089;BME280;7120;52.890;6.040;2022-09-09T07:20:09;100642.53;;;16.26;88.77
14089;BME280;7120;52.890;6.040;2022-09-09T07:22:34;100633.09;;;16.39;87.59
14089;BME280;7120;52.890;6.040;2022-09-09T07:25:00;100633.53;;;16.41;88.67
14089;BME280;7120;52.890;6.040;2022-09-09T07:27:27;100636.53;;;16.48;89.10
14089;BME280;7120;52.890;6.040;2022-09-09T07:29:52;100636.19;;;16.50;89.17
14089;BME280;7120;52.890;6.040;2022-09-09T07:32:19;100646.75;;;16.85;89.91
14089;BME280;7120;52.890;6.040;2022-09-09T07:34:45;100637.66;;;17.12;88.40
14089;BME280;7120;52.890;6.040;2022-09-09T07:37:11;100641.69;;;17.15;88.04
14089;BME280;7120;52.890;6.040;2022-09-09T07:39:39;100634.16;;;17.27;88.09
14089;BME280;7120;52.890;6.040;2022-09-09T07:42:04;100632.03;;;17.37;87.00
14089;BME280;7120;52.890;6.040;2022-09-09T07:44:30;100640.13;;;17.57;85.77
14089;BME280;7120;52.890;6.040;2022-09-09T07:46:57;100643.56;;;17.54;86.00
14089;BME280;7120;52.890;6.040;2022-09-09T07:49:22;100633.97;;;17.64;86.13
14089;BME280;7120;52.890;6.040;2022-09-09T07:51:49;100644.66;;;17.78;85.47
14089;BME280;7120;52.890;6.040;2022-09-09T07:54:16;100646.97;;;17.92;85.09
14089;BME280;7120;52.890;6.040;2022-09-09T07:56:45;100643.91;;;17.81;84.36
14089;BME280;7120;52.890;6.040;2022-09-09T07:59:12;100646.16;;;18.07;83.95
14089;BME280;7120;52.890;6.040;2022-09-09T08:01:44;100653.94;;;18.01;84.46
14089;BME280;7120;52.890;6.040;2022-09-09T08:04:13;100647.22;;;18.18;84.32
14089;BME280;7120;52.890;6.040;2022-09-09T08:06:48;100644.34;;;18.30;83.29
14089;BME280;7120;52.890;6.040;2022-09-09T08:09:14;100645.78;;;18.40;83.43
14089;BME280;7120;52.890;6.040;2022-09-09T08:11:40;100654.94;;;18.60;83.00
14089;BME280;7120;52.890;6.040;2022-09-09T08:14:07;100649.47;;;18.79;81.53
14089;BME280;7120;52.890;6.040;2022-09-09T08:16:35;100648.66;;;18.79;81.32
14089;BME280;7120;52.890;6.040;2022-09-09T08:19:02;100640.59;;;18.38;82.10
14089;BME280;7120;52.890;6.040;2022-09-09T08:21:30;100637.69;;;18.66;81.29
14089;BME280;7120;52.890;6.040;2022-09-09T08:23:58;100648.47;;;18.87;81.11
14089;BME280;7120;52.890;6.040;2022-09-09T08:26:26;100657.66;;;19.30;79.83
14089;BME280;7120;52.890;6.040;2022-09-09T08:28:54;100657.22;;;19.47;77.87
14089;BME280;7120;52.890;6.040;2022-09-09T08:31:27;100657.09;;;19.40;79.95
14089;BME280;7120;52.890;6.040;2022-09-09T08:33:57;100643.38;;;19.28;79.11
14089;BME280;7120;52.890;6.040;2022-09-09T08:36:26;100661.97;;;18.89;79.40
14089;BME280;7120;52.890;6.040;2022-09-09T08:38:55;100669.41;;;19.04;79.83
14089;BME280;7120;52.890;6.040;2022-09-09T08:51:59;100663.59;;;20.13;73.40
14089;BME280;7120;52.890;6.040;2022-09-09T08:54:31;100662.41;;;19.68;75.67
14089;BME280;7120;52.890;6.040;2022-09-09T08:56:58;100653.06;;;19.57;77.98
14089;BME280;7120;52.890;6.040;2022-09-09T08:59:23;100665.31;;;19.75;76.88
14089;BME280;7120;52.890;6.040;2022-09-09T09:01:51;100669.31;;;20.47;74.52
14089;BME280;7120;52.890;6.040;2022-09-09T09:04:41;100665.34;;;19.79;73.55
14089;BME280;7120;52.890;6.040;2022-09-09T09:07:47;100676.41;;;19.37;76.44
14089;BME280;7120;52.890;6.040;2022-09-09T09:10:45;100677.38;;;19.25;76.36
14089;BME280;7120;52.890;6.040;2022-09-09T09:13:20;100676.06;;;19.58;76.16
14089;BME280;7120;52.890;6.040;2022-09-09T09:15:56;100676.19;;;19.65;75.26
14089;BME280;7120;52.890;6.040;2022-09-09T09:18:23;100681.53;;;19.35;75.97
14089;BME280;7120;52.890;6.040;2022-09-09T09:21:29;100683.69;;;19.45;75.63
14089;BME280;7120;52.890;6.040;2022-09-09T09:23:59;100689.72;;;19.66;73.30
14089;BME280;7120;52.890;6.040;2022-09-09T09:26:29;100681.53;;;20.19;73.82
14089;BME280;7120;52.890;6.040;2022-09-09T09:28:56;100676.47;;;20.25;73.09
14089;BME280;7120;52.890;6.040;2022-09-09T09:31:23;100679.25;;;20.48;73.13
14089;BME280;7120;52.890;6.040;2022-09-09T09:33:56;100686.59;;;20.86;73.79
14089;BME280;7120;52.890;6.040;2022-09-09T09:36:34;100664.88;;;20.19;71.00
14089;BME280;7120;52.890;6.040;2022-09-09T09:39:01;100672.91;;;20.47;71.47
14089;BME280;7120;52.890;6.040;2022-09-09T09:41:40;100681.13;;;20.67;71.39
14089;BME280;7120;52.890;6.040;2022-09-09T09:46:47;100679.06;;;20.90;69.33
14089;BME280;7120;52.890;6.040;2022-09-09T09:49:12;100684.75;;;20.97;69.00
14089;BME280;7120;52.890;6.040;2022-09-09T09:51:39;100681.94;;;20.97;68.35
14089;BME280;7120;52.890;6.040;2022-09-09T09:54:16;100690.31;;;20.71;69.71
14089;BME280;7120;52.890;6.040;2022-09-09T09:56:44;100690.34;;;21.01;68.63
14089;BME280;7120;52.890;6.040;2022-09-09T10:01:46;100685.69;;;21.38;66.34
14089;BME280;7120;52.890;6.040;2022-09-09T10:04:20;100696.59;;;21.51;67.03
14089;BME280;7120;52.890;6.040;2022-09-09T10:06:50;100687.28;;;21.39;64.46
14089;BME280;7120;52.890;6.040;2022-09-09T10:12:01;100698.19;;;21.22;66.85
14089;BME280;7120;52.890;6.040;2022-09-09T10:17:29;100700.97;;;21.22;66.52
14089;BME280;7120;52.890;6.040;2022-09-09T10:20:27;100702.41;;;20.82;67.54
14089;BME280;7120;52.890;6.040;2022-09-09T10:23:27;100692.16;;;20.60;67.06
14089;BME280;7120;52.890;6.040;2022-09-09T10:26:04;100701.97;;;20.53;68.25
14089;BME280;7120;52.890;6.040;2022-09-09T10:28:42;100709.06;;;20.05;70.91
14089;BME280;7120;52.890;6.040;2022-09-09T10:31:34;100711.63;;;19.94;69.34
14089;BME280;7120;52.890;6.040;2022-09-09T10:34:26;100697.63;;;19.87;71.03
14089;BME280;7120;52.890;6.040;2022-09-09T10:36:56;100704.00;;;20.11;69.94
14089;BME280;7120;52.890;6.040;2022-09-09T10:39:35;100704.81;;;20.11;69.11
14089;BME280;7120;52.890;6.040;2022-09-09T10:42:08;100690.41;;;20.28;68.37
14089;BME280;7120;52.890;6.040;2022-09-09T10:53:00;100693.75;;;20.61;68.59
14089;BME280;7120;52.890;6.040;2022-09-09T10:55:35;100696.16;;;20.39;67.06
14089;BME280;7120;52.890;6.040;2022-09-09T10:58:03;100691.53;;;20.24;69.05
14089;BME280;7120;52.890;6.040;2022-09-09T11:00:41;100691.72;;;20.12;68.44
14089;BME280;7120;52.890;6.040;2022-09-09T11:03:17;100700.00;;;19.66;70.60
14089;BME280;7120;52.890;6.040;2022-09-09T11:06:09;100701.31;;;19.53;71.43
14089;BME280;7120;52.890;6.040;2022-09-09T11:08:39;100703.44;;;19.40;71.84
14089;BME280;7120;52.890;6.040;2022-09-09T11:11:15;100702.38;;;19.09;72.73
14089;BME280;7120;52.890;6.040;2022-09-09T11:13:53;100705.63;;;18.96;73.34
14089;BME280;7120;52.890;6.040;2022-09-09T11:16:50;100705.09;;;18.55;77.08
14089;BME280;7120;52.890;6.040;2022-09-09T11:19:35;100701.69;;;18.61;77.48
14089;BME280;7120;52.890;6.040;2022-09-09T11:24:43;100702.97;;;19.38;76.16
14089;BME280;7120;52.890;6.040;2022-09-09T11:27:24;100695.59;;;20.07;72.32
14089;BME280;7120;52.890;6.040;2022-09-09T11:38:46;100684.53;;;20.56;69.08
14089;BME280;7120;52.890;6.040;2022-09-09T11:41:13;100681.06;;;20.63;68.89
14089;BME280;7120;52.890;6.040;2022-09-09T11:46:05;100679.56;;;20.69;69.33
14089;BME280;7120;52.890;6.040;2022-09-09T11:48:56;100689.47;;;21.23;66.35
14089;BME280;7120;52.890;6.040;2022-09-09T11:56:30;100692.53;;;21.15;65.20
14089;BME280;7120;52.890;6.040;2022-09-09T11:59:02;100691.47;;;20.96;65.75
14089;BME280;7120;52.890;6.040;2022-09-09T12:01:49;100691.69;;;20.84;66.65
14089;BME280;7120;52.890;6.040;2022-09-09T12:06:57;100692.50;;;20.84;66.25
14089;BME280;7120;52.890;6.040;2022-09-09T12:09:45;100671.81;;;20.82;67.40
14089;BME280;7120;52.890;6.040;2022-09-09T12:14:43;100681.94;;;20.97;66.11
14089;BME280;7120;52.890;6.040;2022-09-09T12:17:20;100679.28;;;21.04;66.15
14089;BME280;7120;52.890;6.040;2022-09-09T12:19:46;100679.28;;;21.04;66.11
14089;BME280;7120;52.890;6.040;2022-09-09T12:30:38;100666.53;;;20.47;68.06
14089;BME280;7120;52.890;6.040;2022-09-09T12:33:11;100678.78;;;19.96;69.00
14089;BME280;7120;52.890;6.040;2022-09-09T12:35:38;100690.94;;;19.30;76.15
14089;BME280;7120;52.890;6.040;2022-09-09T12:38:06;100679.13;;;19.33;78.97
14089;BME280;7120;52.890;6.040;2022-09-09T12:40:36;100671.25;;;19.74;78.33
14089;BME280;7120;52.890;6.040;2022-09-09T12:43:17;100666.97;;;20.26;77.60
14089;BME280;7120;52.890;6.040;2022-09-09T12:45:42;100674.91;;;20.77;75.96
14089;BME280;7120;52.890;6.040;2022-09-09T12:48:10;100663.97;;;20.88;74.21
14089;BME280;7120;52.890;6.040;2022-09-09T12:50:38;100661.31;;;20.68;72.88
14089;BME280;7120;52.890;6.040;2022-09-09T12:53:30;100657.44;;;21.06;74.06
14089;BME280;7120;52.890;6.040;2022-09-09T12:55:59;100656.63;;;21.06;73.75
14089;BME280;7120;52.890;6.040;2022-09-09T12:58:26;100648.31;;;20.49;73.39
14089;BME280;7120;52.890;6.040;2022-09-09T13:00:54;100648.50;;;19.88;74.85
14089;BME280;7120;52.890;6.040;2022-09-09T13:03:23;100652.63;;;19.36;77.67
14089;BME280;7120;52.890;6.040;2022-09-09T13:05:50;100659.41;;;19.00;78.32
14089;BME280;7120;52.890;6.040;2022-09-09T13:08:17;100654.81;;;19.65;79.77
14089;BME280;7120;52.890;6.040;2022-09-09T13:11:01;100651.44;;;19.75;76.23
14089;BME280;7120;52.890;6.040;2022-09-09T13:13:30;100654.44;;;20.13;75.76
14089;BME280;7120;52.890;6.040;2022-09-09T13:15:59;100645.38;;;20.65;74.79
14089;BME280;7120;52.890;6.040;2022-09-09T13:18:43;100641.72;;;20.88;74.13
14089;BME280;7120;52.890;6.040;2022-09-09T13:21:08;100646.13;;;21.97;71.75
14089;BME280;7120;52.890;6.040;2022-09-09T13:23:36;100637.34;;;22.35;68.50
14089;BME280;7120;52.890;6.040;2022-09-09T13:26:05;100651.50;;;22.16;68.21
14089;BME280;7120;52.890;6.040;2022-09-09T13:28:33;100638.94;;;22.40;66.87
14089;BME280;7120;52.890;6.040;2022-09-09T13:31:04;100633.28;;;22.88;64.47
14089;BME280;7120;52.890;6.040;2022-09-09T13:33:34;100631.72;;;21.87;64.61
14089;BME280;7120;52.890;6.040;2022-09-09T13:36:08;100636.63;;;21.57;66.85
14089;BME280;7120;52.890;6.040;2022-09-09T13:38:53;100636.38;;;21.76;68.88
14089;BME280;7120;52.890;6.040;2022-09-09T13:41:21;100634.91;;;21.86;65.99
14089;BME280;7120;52.890;6.040;2022-09-09T13:43:49;100630.41;;;22.15;64.67
14089;BME280;7120;52.890;6.040;2022-09-09T13:46:34;100631.66;;;22.25;63.77
14089;BME280;7120;52.890;6.040;2022-09-09T13:49:02;100628.38;;;22.08;63.75
14089;BME280;7120;52.890;6.040;2022-09-09T13:51:39;100635.28;;;21.84;63.90
14089;BME280;7120;52.890;6.040;2022-09-09T13:54:06;100630.47;;;21.78;65.73
14089;BME280;7120;52.890;6.040;2022-09-09T13:56:35;100627.25;;;21.76;66.43
14089;BME280;7120;52.890;6.040;2022-09-09T13:59:01;100625.91;;;21.62;65.75
14089;BME280;7120;52.890;6.040;2022-09-09T14:01:27;100636.06;;;21.14;67.10
14089;BME280;7120;52.890;6.040;2022-09-09T14:03:53;100623.56;;;20.97;67.22
14089;BME280;7120;52.890;6.040;2022-09-09T14:06:18;100630.50;;;21.10;66.99
14089;BME280;7120;52.890;6.040;2022-09-09T14:08:44;100630.19;;;21.19;66.81
14089;BME280;7120;52.890;6.040;2022-09-09T14:11:12;100618.06;;;21.34;66.10
14089;BME280;7120;52.890;6.040;2022-09-09T14:13:37;100640.69;;;21.29;67.35
14089;BME280;7120;52.890;6.040;2022-09-09T14:16:03;100634.16;;;21.18;65.79
14089;BME280;7120;52.890;6.040;2022-09-09T14:18:28;100641.75;;;20.91;65.90
14089;BME280;7120;52.890;6.040;2022-09-09T14:20:54;100638.56;;;20.89;67.04
14089;BME280;7120;52.890;6.040;2022-09-09T14:23:19;100639.88;;;20.69;67.56
14089;BME280;7120;52.890;6.040;2022-09-09T14:25:47;100630.50;;;20.80;66.22
14089;BME280;7120;52.890;6.040;2022-09-09T14:28:13;100639.97;;;20.49;67.82
14089;BME280;7120;52.890;6.040;2022-09-09T14:30:40;100630.22;;;20.36;68.35
14089;BME280;7120;52.890;6.040;2022-09-09T14:33:08;100632.16;;;20.32;68.58
14089;BME280;7120;52.890;6.040;2022-09-09T14:35:34;100647.22;;;20.08;72.64
14089;BME280;7120;52.890;6.040;2022-09-09T14:38:00;100655.00;;;19.76;73.36
14089;BME280;7120;52.890;6.040;2022-09-09T14:40:26;100654.91;;;19.11;77.60
14089;BME280;7120;52.890;6.040;2022-09-09T14:42:52;100660.72;;;18.86;80.24
14089;BME280;7120;52.890;6.040;2022-09-09T14:45:18;100655.78;;;18.29;83.02
14089;BME280;7120;52.890;6.040;2022-09-09T14:47:43;100657.13;;;17.72;84.85
14089;BME280;7120;52.890;6.040;2022-09-09T14:50:08;100649.06;;;17.67;85.79
14089;BME280;7120;52.890;6.040;2022-09-09T14:52:34;100634.41;;;17.50;86.13
14089;BME280;7120;52.890;6.040;2022-09-09T14:54:59;100636.63;;;17.45;87.61
14089;BME280;7120;52.890;6.040;2022-09-09T14:57:24;100640.59;;;17.75;87.23
14089;BME280;7120;52.890;6.040;2022-09-09T14:59:50;100635.09;;;17.91;87.84
14089;BME280;7120;52.890;6.040;2022-09-09T15:02:15;100630.72;;;18.06;87.80
14089;BME280;7120;52.890;6.040;2022-09-09T15:04:41;100617.88;;;18.14;87.43
14089;BME280;7120;52.890;6.040;2022-09-09T15:07:07;100634.41;;;18.61;87.14
14089;BME280;7120;52.890;6.040;2022-09-09T15:09:32;100640.78;;;18.81;85.63